createdAt,value
2019-02-27T00:01:29.363Z,25.10
2019-02-27T00:04:03.061Z,25.10
2019-02-27T00:06:35.717Z,25.10
2019-02-27T00:09:10.298Z,25.30
2019-02-27T00:11:46.672Z,25.40
2019-02-27T00:14:18.173Z,25.50
2019-02-27T00:16:50.955Z,25.50
2019-02-27T00:19:23.624Z,25.40
2019-02-27T00:21:56.161Z,25.50
2019-02-27T00:24:30.586Z,25.70
2019-02-27T00:27:03.112Z,25.80
2019-02-27T00:29:35.531Z,25.90
2019-02-27T00:32:07.876Z,25.80
2019-02-27T00:34:40.570Z,25.80
2019-02-27T00:37:13.346Z,26.00
2019-02-27T00:39:45.834Z,26.10
2019-02-27T00:42:21.473Z,26.20
2019-02-27T00:44:53.554Z,26.30
2019-02-27T00:47:25.981Z,26.40
2019-02-27T00:49:58.591Z,26.30
2019-02-27T00:52:31.032Z,26.30
2019-02-27T00:55:04.651Z,26.50
2019-02-27T00:57:37.197Z,26.40
2019-02-27T01:00:13.588Z,26.50
2019-02-27T01:02:46.321Z,26.70
2019-02-27T01:05:18.865Z,26.70
2019-02-27T01:07:53.990Z,26.70
2019-02-27T01:10:25.475Z,26.50
2019-02-27T01:12:58.807Z,26.50
2019-02-27T01:15:31.727Z,26.60
2019-02-27T01:18:04.243Z,26.80
2019-02-27T01:20:36.628Z,26.40
2019-02-27T01:23:11.047Z,26.60
2019-02-27T01:25:43.138Z,26.70
2019-02-27T01:28:15.660Z,26.70
2019-02-27T01:30:49.849Z,26.70
2019-02-27T01:33:23.230Z,26.70
2019-02-27T01:35:56.141Z,27.10
2019-02-27T01:38:29.426Z,27.30
2019-02-27T01:41:05.665Z,27.30
2019-02-27T01:43:40.059Z,27.00
2019-02-27T01:46:13.046Z,27.10
2019-02-27T01:48:45.426Z,27.30
2019-02-27T01:51:17.652Z,27.70
2019-02-27T01:53:50.082Z,27.90
2019-02-27T01:56:22.594Z,28.20
2019-02-27T01:58:54.999Z,28.30
2019-02-27T02:01:30.227Z,28.40
2019-02-27T02:04:01.655Z,28.60
2019-02-27T02:06:34.237Z,28.60
2019-02-27T02:09:09.035Z,28.50
2019-02-27T02:11:41.842Z,28.80
2019-02-27T02:14:20.948Z,29.10
2019-02-27T02:16:52.905Z,29.00
2019-02-27T02:19:27.621Z,29.00
2019-02-27T02:22:02.767Z,29.30
2019-02-27T02:24:38.008Z,29.00
2019-02-27T02:27:12.585Z,29.00
2019-02-27T02:29:47.773Z,29.30
2019-02-27T02:32:23.951Z,29.60
2019-02-27T02:34:58.871Z,29.90
2019-02-27T02:37:36.985Z,29.90
2019-02-27T02:40:10.615Z,29.50
2019-02-27T02:42:45.829Z,29.70
2019-02-27T02:45:21.678Z,30.00
2019-02-27T02:47:56.868Z,30.20
2019-02-27T02:50:32.137Z,30.50
2019-02-27T02:53:06.813Z,29.70
2019-02-27T02:55:47.523Z,29.60
2019-02-27T02:58:17.923Z,29.80
2019-02-27T03:00:53.886Z,29.70
2019-02-27T03:03:28.508Z,30.20
2019-02-27T03:06:03.255Z,30.50
2019-02-27T03:08:38.270Z,30.70
2019-02-27T03:11:18.134Z,30.90
2019-02-27T03:13:49.122Z,31.20
2019-02-27T03:16:24.114Z,31.20
2019-02-27T03:19:05.096Z,31.10
2019-02-27T03:21:35.755Z,30.80
2019-02-27T03:24:10.205Z,31.20
2019-02-27T03:26:44.892Z,31.40
2019-02-27T03:29:19.427Z,30.80
2019-02-27T03:32:00.150Z,31.00
2019-02-27T03:34:31.765Z,31.60
2019-02-27T03:37:06.442Z,31.80
2019-02-27T03:39:41.347Z,31.90
2019-02-27T03:42:16.076Z,31.90
2019-02-27T03:44:55.756Z,31.80
2019-02-27T03:47:27.586Z,32.20
2019-02-27T03:50:02.244Z,32.60
2019-02-27T03:52:37.365Z,32.10
2019-02-27T03:55:12.026Z,32.40
2019-02-27T03:58:04.892Z,32.60
2019-02-27T04:00:42.010Z,32.20
2019-02-27T04:03:18.179Z,32.50
2019-02-27T04:05:51.777Z,32.60
2019-02-27T04:08:26.329Z,32.00
2019-02-27T04:10:59.040Z,31.60
2019-02-27T04:13:31.534Z,32.40
2019-02-27T04:16:04.069Z,31.70
2019-02-27T04:18:35.306Z,31.90
2019-02-27T04:21:07.717Z,32.30
2019-02-27T04:23:40.022Z,31.80
2019-02-27T04:26:12.653Z,32.10
2019-02-27T04:28:45.192Z,32.00
2019-02-27T04:31:18.212Z,32.90
2019-02-27T04:33:50.594Z,33.30
2019-02-27T04:36:22.857Z,33.50
2019-02-27T04:38:55.285Z,33.80
2019-02-27T04:41:28.380Z,33.80
2019-02-27T04:44:04.948Z,33.60
2019-02-27T04:46:34.746Z,34.10
2019-02-27T04:49:07.333Z,33.70
2019-02-27T04:51:39.738Z,33.30
2019-02-27T04:54:12.059Z,32.30
2019-02-27T04:56:44.668Z,33.20
2019-02-27T04:59:18.683Z,32.80
2019-02-27T05:01:51.143Z,33.50
2019-02-27T05:04:23.253Z,33.50
2019-02-27T05:06:55.930Z,33.60
2019-02-27T05:09:28.403Z,33.50
2019-02-27T05:12:01.091Z,33.90
2019-02-27T05:14:33.499Z,33.30
2019-02-27T05:17:06.339Z,33.80
2019-02-27T05:19:39.227Z,33.70
2019-02-27T05:22:11.535Z,33.90
2019-02-27T05:24:44.066Z,34.70
2019-02-27T05:27:16.462Z,34.40
2019-02-27T05:29:49.085Z,34.10
2019-02-27T05:32:21.518Z,33.60
2019-02-27T05:34:54.276Z,33.30
2019-02-27T05:37:26.673Z,34.30
2019-02-27T05:39:59.302Z,34.40
2019-02-27T05:42:31.966Z,34.70
2019-02-27T05:45:04.504Z,34.50
2019-02-27T05:47:37.173Z,33.40
2019-02-27T05:50:11.762Z,33.20
2019-02-27T05:52:48.531Z,33.30
2019-02-27T05:55:18.223Z,34.00
2019-02-27T05:57:50.871Z,34.60
2019-02-27T06:00:23.975Z,34.00
2019-02-27T06:02:56.930Z,34.50
2019-02-27T06:05:29.283Z,35.10
2019-02-27T06:08:02.213Z,35.70
2019-02-27T06:10:35.237Z,35.00
2019-02-27T06:13:07.660Z,35.20
2019-02-27T06:15:40.294Z,35.30
2019-02-27T06:18:12.445Z,34.20
2019-02-27T06:20:45.079Z,33.80
2019-02-27T06:23:17.972Z,34.70
2019-02-27T06:25:50.530Z,35.00
2019-02-27T06:28:22.833Z,35.70
2019-02-27T06:30:55.618Z,34.90
2019-02-27T06:33:28.043Z,34.70
2019-02-27T06:36:00.456Z,35.10
2019-02-27T06:38:33.858Z,35.60
2019-02-27T06:41:06.631Z,36.00
2019-02-27T06:43:38.914Z,34.90
2019-02-27T06:46:11.342Z,35.20
2019-02-27T06:48:44.169Z,35.70
2019-02-27T06:51:16.652Z,36.00
2019-02-27T06:53:49.194Z,36.00
2019-02-27T06:56:22.674Z,36.30
2019-02-27T06:58:55.171Z,36.40
2019-02-27T07:01:27.842Z,36.30
2019-02-27T07:04:02.321Z,35.80
2019-02-27T07:06:34.219Z,35.30
2019-02-27T07:09:11.354Z,35.30
2019-02-27T07:11:44.888Z,34.80
2019-02-27T07:14:16.043Z,34.70
2019-02-27T07:16:48.579Z,34.70
2019-02-27T07:19:21.299Z,35.50
2019-02-27T07:21:53.607Z,36.30
2019-02-27T07:24:26.221Z,35.50
2019-02-27T07:26:59.824Z,35.20
2019-02-27T07:29:32.244Z,35.10
2019-02-27T07:32:04.576Z,35.70
2019-02-27T07:34:36.975Z,35.80
2019-02-27T07:37:10.403Z,35.90
2019-02-27T07:39:43.642Z,35.40
2019-02-27T07:42:16.187Z,34.90
2019-02-27T07:44:48.556Z,35.80
2019-02-27T07:47:21.018Z,36.20
2019-02-27T07:49:53.552Z,36.00
2019-02-27T07:52:25.976Z,35.10
2019-02-27T07:54:58.694Z,35.10
2019-02-27T07:57:31.661Z,35.80
2019-02-27T08:00:04.303Z,36.10
2019-02-27T08:02:37.536Z,35.60
2019-02-27T08:05:11.735Z,35.10
2019-02-27T08:07:48.673Z,34.90
2019-02-27T08:10:20.477Z,35.70
2019-02-27T08:12:55.621Z,35.60
2019-02-27T08:15:26.528Z,36.10
2019-02-27T08:17:59.046Z,36.30
2019-02-27T08:20:31.528Z,36.40
2019-02-27T08:23:04.031Z,35.80
2019-02-27T08:25:36.478Z,36.10
2019-02-27T08:28:09.019Z,36.00
2019-02-27T08:30:41.472Z,35.80
2019-02-27T08:33:15.210Z,35.90
2019-02-27T08:35:47.911Z,36.40
2019-02-27T08:38:20.748Z,36.60
2019-02-27T08:40:57.405Z,36.30
2019-02-27T08:43:26.958Z,36.10
2019-02-27T08:46:02.171Z,36.60
2019-02-27T08:48:33.398Z,36.70
2019-02-27T08:51:08.482Z,36.70
2019-02-27T08:53:39.894Z,36.70
2019-02-27T08:56:12.298Z,36.50
2019-02-27T08:58:45.490Z,36.50
2019-02-27T09:01:19.020Z,36.40
2019-02-27T09:03:51.812Z,36.30
2019-02-27T09:06:27.331Z,35.90
2019-02-27T09:08:57.976Z,35.80
2019-02-27T09:11:30.723Z,35.70
2019-02-27T09:14:03.559Z,35.30
2019-02-27T09:16:36.047Z,35.30
2019-02-27T09:19:09.422Z,35.10
2019-02-27T09:21:42.680Z,35.20
2019-02-27T09:24:14.998Z,35.30
2019-02-27T09:26:47.628Z,35.50
2019-02-27T09:29:20.166Z,35.80
2019-02-27T09:31:52.715Z,35.90
2019-02-27T09:34:26.829Z,35.90
2019-02-27T09:36:59.105Z,35.60
2019-02-27T09:39:31.973Z,35.70
2019-02-27T09:42:04.566Z,35.70
2019-02-27T09:44:37.270Z,35.50
2019-02-27T09:47:09.813Z,35.30
2019-02-27T09:49:42.116Z,35.30
2019-02-27T09:52:14.942Z,35.20
2019-02-27T09:54:47.571Z,34.90
2019-02-27T09:57:20.125Z,34.80
2019-02-27T09:59:53.575Z,34.80
2019-02-27T10:02:26.441Z,34.80
2019-02-27T10:05:02.915Z,34.60
2019-02-27T10:07:33.019Z,34.50
2019-02-27T10:10:05.414Z,34.50
2019-02-27T10:12:37.965Z,34.40
2019-02-27T10:15:10.586Z,34.20
2019-02-27T10:17:43.644Z,34.20
2019-02-27T10:20:16.818Z,34.10
2019-02-27T10:22:49.326Z,34.20
2019-02-27T10:25:21.727Z,34.10
2019-02-27T10:27:54.886Z,34.00
2019-02-27T10:30:27.530Z,33.90
2019-02-27T10:33:00.300Z,33.90
2019-02-27T10:35:34.764Z,33.70
2019-02-27T10:38:08.230Z,33.70
2019-02-27T10:40:40.647Z,33.60
2019-02-27T10:43:13.107Z,33.60
2019-02-27T10:45:48.563Z,33.60
2019-02-27T10:48:19.163Z,33.50
2019-02-27T10:50:51.504Z,33.40
2019-02-27T10:53:27.119Z,33.30
2019-02-27T10:55:58.008Z,33.30
2019-02-27T10:58:30.543Z,33.30
2019-02-27T11:01:03.186Z,33.20
2019-02-27T11:03:35.804Z,33.20
2019-02-27T11:06:08.660Z,33.10
2019-02-27T11:08:41.427Z,33.00
2019-02-27T11:11:16.385Z,32.80
2019-02-27T11:13:48.396Z,32.60
2019-02-27T11:16:22.128Z,32.50
2019-02-27T11:18:54.628Z,32.50
2019-02-27T11:21:27.314Z,32.60
2019-02-27T11:24:00.271Z,32.60
2019-02-27T11:26:33.875Z,32.50
2019-02-27T11:29:06.625Z,32.30
2019-02-27T11:31:42.267Z,32.20
2019-02-27T11:34:13.314Z,32.10
2019-02-27T11:36:46.222Z,31.80
2019-02-27T11:39:19.127Z,31.80
2019-02-27T11:41:51.561Z,31.90
2019-02-27T11:44:24.138Z,31.90
2019-02-27T11:46:58.964Z,31.80
2019-02-27T11:49:31.014Z,31.90
2019-02-27T11:52:03.301Z,31.90
2019-02-27T11:54:35.730Z,31.80
2019-02-27T11:57:08.147Z,31.50
2019-02-27T11:59:41.041Z,31.40
2019-02-27T12:02:13.435Z,31.40
2019-02-27T12:04:45.884Z,31.30
2019-02-27T12:07:18.674Z,31.40
2019-02-27T12:09:51.171Z,31.50
2019-02-27T12:12:24.722Z,31.20
2019-02-27T12:14:57.326Z,31.00
2019-02-27T12:17:29.924Z,31.00
2019-02-27T12:20:02.998Z,30.90
2019-02-27T12:22:35.989Z,30.80
2019-02-27T12:25:10.974Z,30.80
2019-02-27T12:27:49.283Z,30.70
2019-02-27T12:30:20.255Z,30.70
2019-02-27T12:32:55.730Z,30.60
2019-02-27T12:35:29.159Z,30.70
2019-02-27T12:38:04.522Z,30.70
2019-02-27T12:40:35.357Z,30.80
2019-02-27T12:43:08.208Z,30.90
2019-02-27T12:45:40.611Z,30.80
2019-02-27T12:48:13.347Z,30.80
2019-02-27T12:50:45.834Z,30.70
2019-02-27T12:53:21.565Z,30.70
2019-02-27T12:55:53.349Z,30.60
2019-02-27T12:58:26.411Z,30.60
2019-02-27T13:00:59.741Z,30.60
2019-02-27T13:03:32.198Z,30.60
2019-02-27T13:06:04.625Z,30.60
2019-02-27T13:08:37.519Z,30.60
2019-02-27T13:11:28.827Z,30.50
2019-02-27T13:14:01.527Z,30.40
2019-02-27T13:16:33.808Z,30.40
2019-02-27T13:19:07.080Z,30.30
2019-02-27T13:21:40.232Z,30.20
2019-02-27T13:24:15.029Z,30.20
2019-02-27T13:26:46.518Z,30.20
2019-02-27T13:29:20.551Z,30.20
2019-02-27T13:31:56.619Z,30.20
2019-02-27T13:34:34.188Z,30.20
2019-02-27T13:37:10.123Z,30.10
2019-02-27T13:39:43.672Z,30.10
2019-02-27T13:42:18.668Z,29.90
2019-02-27T13:44:50.420Z,29.90
2019-02-27T13:47:22.977Z,29.80
2019-02-27T13:49:55.416Z,29.80
2019-02-27T13:52:27.829Z,29.70
2019-02-27T13:55:00.602Z,29.50
2019-02-27T13:57:33.199Z,29.50
2019-02-27T14:00:06.918Z,29.50
2019-02-27T14:02:39.656Z,29.40
2019-02-27T14:05:12.783Z,29.40
2019-02-27T14:07:45.236Z,29.30
2019-02-27T14:10:20.664Z,29.20
2019-02-27T14:12:53.462Z,29.30
2019-02-27T14:15:27.405Z,29.30
2019-02-27T14:18:00.132Z,29.30
2019-02-27T14:20:33.162Z,29.30
2019-02-27T14:23:05.462Z,29.10
2019-02-27T14:25:38.499Z,29.20
2019-02-27T14:28:11.462Z,29.10
2019-02-27T14:30:46.797Z,29.10
2019-02-27T14:33:20.628Z,28.90
2019-02-27T14:35:53.277Z,28.90
2019-02-27T14:38:25.570Z,29.00
2019-02-27T14:40:58.052Z,29.10
2019-02-27T14:43:30.474Z,28.90
2019-02-27T14:46:03.002Z,28.80
2019-02-27T14:48:35.514Z,28.80
2019-02-27T14:51:11.077Z,28.90
2019-02-27T14:53:42.450Z,28.80
2019-02-27T14:56:15.084Z,28.60
2019-02-27T14:58:47.789Z,28.60
2019-02-27T15:01:20.317Z,28.50
2019-02-27T15:03:52.739Z,28.40
2019-02-27T15:06:25.419Z,28.40
2019-02-27T15:08:58.343Z,28.40
2019-02-27T15:11:31.796Z,28.30
2019-02-27T15:14:04.382Z,28.30
2019-02-27T15:16:37.069Z,28.20
2019-02-27T15:19:09.366Z,28.40
2019-02-27T15:21:43.899Z,28.30
2019-02-27T15:24:15.917Z,28.10
2019-02-27T15:26:50.643Z,28.10
2019-02-27T15:29:22.579Z,28.00
2019-02-27T15:31:56.658Z,27.90
2019-02-27T15:34:29.048Z,28.00
2019-02-27T15:37:04.215Z,27.90
2019-02-27T15:39:35.651Z,27.80
2019-02-27T15:42:09.695Z,27.90
2019-02-27T15:44:42.513Z,27.90
2019-02-27T15:47:15.482Z,27.90
2019-02-27T15:49:48.797Z,27.90
2019-02-27T15:52:22.387Z,27.80
2019-02-27T15:54:55.570Z,27.70
2019-02-27T15:57:28.812Z,27.70
2019-02-27T16:00:01.444Z,27.70
2019-02-27T16:02:36.749Z,27.60
2019-02-27T16:05:12.411Z,27.70
2019-02-27T16:07:48.469Z,27.60
2019-02-27T16:10:22.619Z,27.70
2019-02-27T16:12:59.574Z,27.60
2019-02-27T16:15:29.493Z,27.50
2019-02-27T16:18:04.704Z,27.60
2019-02-27T16:20:36.794Z,27.50
2019-02-27T16:23:08.994Z,27.50
2019-02-27T16:25:41.421Z,27.40
2019-02-27T16:28:16.420Z,27.40
2019-02-27T16:30:47.557Z,27.50
2019-02-27T16:33:24.039Z,27.50
2019-02-27T16:35:54.135Z,27.60
2019-02-27T16:38:28.420Z,27.60
2019-02-27T16:41:00.481Z,27.40
2019-02-27T16:43:33.083Z,27.40
2019-02-27T16:46:08.566Z,27.30
2019-02-27T16:48:39.459Z,27.40
2019-02-27T16:51:11.906Z,27.30
2019-02-27T16:53:44.425Z,27.30
2019-02-27T16:56:16.731Z,27.30
2019-02-27T16:58:49.486Z,27.40
2019-02-27T17:01:21.909Z,27.60
2019-02-27T17:04:00.268Z,27.40
2019-02-27T17:06:30.941Z,27.30
2019-02-27T17:09:03.696Z,27.50
2019-02-27T17:11:37.682Z,27.60
2019-02-27T17:14:09.924Z,27.60
2019-02-27T17:16:44.905Z,27.60
2019-02-27T17:19:17.634Z,27.60
2019-02-27T17:21:50.235Z,27.70
2019-02-27T17:24:22.931Z,27.70
2019-02-27T17:26:55.338Z,27.60
2019-02-27T17:29:28.100Z,27.60
2019-02-27T17:32:00.433Z,27.40
2019-02-27T17:34:33.079Z,27.40
2019-02-27T17:37:06.352Z,27.30
2019-02-27T17:39:39.430Z,27.10
2019-02-27T17:42:11.745Z,26.80
2019-02-27T17:44:44.469Z,27.10
2019-02-27T17:47:17.208Z,27.30
2019-02-27T17:49:50.162Z,27.30
2019-02-27T17:52:22.681Z,27.30
2019-02-27T17:54:55.439Z,27.30
2019-02-27T17:57:28.566Z,27.40
2019-02-27T18:00:01.449Z,27.40
2019-02-27T18:02:35.365Z,27.40
2019-02-27T18:05:09.938Z,27.40
2019-02-27T18:07:42.758Z,27.40
2019-02-27T18:10:17.106Z,27.30
2019-02-27T18:12:51.568Z,27.30
2019-02-27T18:15:24.750Z,27.30
2019-02-27T18:17:57.489Z,27.10
2019-02-27T18:20:31.803Z,27.10
2019-02-27T18:23:03.768Z,27.10
2019-02-27T18:25:41.099Z,27.10
2019-02-27T18:28:11.208Z,27.10
2019-02-27T18:30:43.738Z,27.10
2019-02-27T18:33:17.471Z,27.00
2019-02-27T18:35:50.115Z,27.00
2019-02-27T18:38:27.552Z,27.10
2019-02-27T18:40:56.809Z,27.00
2019-02-27T18:43:30.188Z,27.10
2019-02-27T18:46:03.532Z,27.00
2019-02-27T18:48:36.024Z,27.00
2019-02-27T18:51:08.706Z,27.00
2019-02-27T18:53:41.027Z,27.00
2019-02-27T18:56:13.567Z,27.00
2019-02-27T18:58:45.886Z,27.00
2019-02-27T19:01:18.808Z,27.00
2019-02-27T19:03:51.430Z,27.00
2019-02-27T19:06:24.037Z,27.00
2019-02-27T19:08:59.591Z,27.00
2019-02-27T19:11:30.508Z,27.00
2019-02-27T19:14:05.677Z,27.00
2019-02-27T19:16:37.134Z,26.90
2019-02-27T19:19:09.679Z,27.00
2019-02-27T19:21:42.583Z,26.90
2019-02-27T19:24:15.223Z,26.90
2019-02-27T19:26:49.484Z,26.90
2019-02-27T19:29:22.832Z,26.90
2019-02-27T19:31:55.352Z,26.80
2019-02-27T19:34:27.764Z,26.80
2019-02-27T19:37:02.544Z,26.80
2019-02-27T19:39:34.240Z,26.80
2019-02-27T19:42:06.932Z,26.80
2019-02-27T19:44:39.601Z,26.70
2019-02-27T19:47:12.088Z,26.70
2019-02-27T19:49:45.075Z,26.60
2019-02-27T19:52:17.752Z,26.60
2019-02-27T19:54:52.625Z,26.60
2019-02-27T19:57:24.114Z,26.60
2019-02-27T19:59:59.084Z,26.60
2019-02-27T20:02:30.789Z,26.60
2019-02-27T20:05:03.110Z,26.60
2019-02-27T20:07:36.497Z,26.50
2019-02-27T20:10:11.166Z,26.50
2019-02-27T20:12:43.680Z,26.50
2019-02-27T20:15:18.555Z,26.60
2019-02-27T20:17:51.292Z,26.50
2019-02-27T20:20:24.962Z,26.50
2019-02-27T20:22:57.452Z,26.50
2019-02-27T20:25:32.921Z,26.60
2019-02-27T20:28:05.760Z,26.60
2019-02-27T20:30:38.303Z,26.40
2019-02-27T20:33:10.828Z,26.40
2019-02-27T20:35:44.193Z,26.30
2019-02-27T20:38:17.821Z,26.20
2019-02-27T20:40:50.264Z,26.20
2019-02-27T20:43:22.585Z,26.30
2019-02-27T20:45:55.349Z,26.30
2019-02-27T20:48:27.823Z,26.20
2019-02-27T20:51:05.893Z,26.20
2019-02-27T20:53:36.747Z,26.40
2019-02-27T20:56:09.224Z,26.30
2019-02-27T20:58:41.542Z,26.30
2019-02-27T21:01:14.114Z,26.30
2019-02-27T21:03:46.512Z,26.30
2019-02-27T21:06:19.382Z,26.40
2019-02-27T21:08:51.684Z,26.40
2019-02-27T21:11:24.119Z,26.30
2019-02-27T21:13:56.757Z,26.20
2019-02-27T21:16:29.597Z,26.10
2019-02-27T21:19:03.221Z,25.90
2019-02-27T21:21:35.908Z,25.90
2019-02-27T21:24:08.429Z,25.90
2019-02-27T21:26:41.427Z,25.90
2019-02-27T21:29:14.355Z,25.90
2019-02-27T21:31:46.976Z,26.00
2019-02-27T21:34:20.142Z,26.00
2019-02-27T21:36:53.065Z,25.90
2019-02-27T21:39:26.207Z,25.90
2019-02-27T21:41:59.397Z,25.90
2019-02-27T21:44:32.017Z,25.80
2019-02-27T21:47:04.652Z,25.80
2019-02-27T21:49:37.167Z,25.90
2019-02-27T21:52:09.574Z,25.90
2019-02-27T21:54:42.663Z,25.80
2019-02-27T21:57:14.869Z,25.80
2019-02-27T21:59:47.347Z,25.80
2019-02-27T22:02:19.682Z,25.80
2019-02-27T22:04:52.588Z,25.80
2019-02-27T22:07:25.344Z,25.90
2019-02-27T22:09:58.186Z,25.70
2019-02-27T22:12:32.431Z,25.70
2019-02-27T22:15:04.465Z,25.50
2019-02-27T22:17:37.639Z,25.50
2019-02-27T22:20:11.486Z,25.50
2019-02-27T22:22:43.988Z,25.60
2019-02-27T22:25:16.549Z,25.70
2019-02-27T22:27:49.038Z,25.60
2019-02-27T22:30:23.471Z,25.60
2019-02-27T22:32:55.930Z,25.60
2019-02-27T22:35:30.294Z,25.50
2019-02-27T22:38:02.182Z,25.50
2019-02-27T22:40:37.906Z,25.50
2019-02-27T22:43:08.544Z,25.50
2019-02-27T22:45:43.981Z,25.50
2019-02-27T22:48:15.116Z,25.50
2019-02-27T22:50:47.652Z,25.50
2019-02-27T22:53:20.302Z,25.60
2019-02-27T22:55:52.853Z,25.60
2019-02-27T22:58:27.354Z,25.50
2019-02-27T23:01:02.742Z,25.30
2019-02-27T23:03:38.511Z,25.20
2019-02-27T23:06:12.900Z,25.30
2019-02-27T23:08:46.042Z,25.30
2019-02-27T23:11:19.871Z,25.30
2019-02-27T23:13:52.383Z,25.30
2019-02-27T23:16:24.736Z,25.30
2019-02-27T23:18:57.150Z,25.40
2019-02-27T23:21:29.907Z,25.40
2019-02-27T23:24:02.296Z,25.20
2019-02-27T23:26:34.857Z,25.20
2019-02-27T23:29:07.358Z,25.20
2019-02-27T23:31:39.864Z,25.10
2019-02-27T23:34:12.306Z,25.20
2019-02-27T23:36:44.952Z,25.30
2019-02-27T23:39:17.463Z,25.30
2019-02-27T23:41:50.051Z,25.40
2019-02-27T23:44:22.822Z,25.30
2019-02-27T23:46:57.520Z,25.30
2019-02-27T23:49:29.337Z,25.10
2019-02-27T23:52:02.042Z,25.10
2019-02-27T23:54:35.903Z,25.20
2019-02-27T23:57:08.929Z,25.20
2019-02-27T23:59:41.380Z,25.20
